createdAt,value
2017-10-01T00:00:36.267Z,62.3
2017-10-01T00:01:37.682Z,62.2
2017-10-01T00:02:39.095Z,62.2
2017-10-01T00:03:40.514Z,62.2
2017-10-01T00:04:41.938Z,62.8
2017-10-01T00:05:43.354Z,63.0
2017-10-01T00:06:44.781Z,62.3
2017-10-01T00:07:46.198Z,62.2
2017-10-01T00:08:47.614Z,62.2
2017-10-01T00:09:49.030Z,62.2
2017-10-01T00:10:50.463Z,62.2
2017-10-01T00:11:51.882Z,62.8
2017-10-01T00:12:53.296Z,62.3
2017-10-01T00:13:54.716Z,62.2
2017-10-01T00:14:56.133Z,62.9
2017-10-01T00:15:57.552Z,62.9
2017-10-01T00:16:58.970Z,62.5
2017-10-01T00:18:00.388Z,62.7
2017-10-01T00:19:01.805Z,62.3
2017-10-01T00:20:03.221Z,62.9
2017-10-01T00:21:04.649Z,62.2
2017-10-01T00:22:06.050Z,62.7
2017-10-01T00:23:07.471Z,62.4
2017-10-01T00:24:08.885Z,62.2
2017-10-01T00:25:10.301Z,62.2
2017-10-01T00:26:11.717Z,63.0
2017-10-01T00:27:13.132Z,62.9
2017-10-01T00:28:14.549Z,62.3
2017-10-01T00:29:15.968Z,62.9
2017-10-01T00:30:17.385Z,62.4
2017-10-01T00:31:18.805Z,62.2
2017-10-01T00:32:20.223Z,62.3
2017-10-01T00:33:21.638Z,62.8
2017-10-01T00:34:23.056Z,62.8
2017-10-01T00:35:24.472Z,62.3
2017-10-01T00:36:25.887Z,62.2
2017-10-01T00:37:27.310Z,62.2
2017-10-01T00:38:28.728Z,62.6
2017-10-01T00:39:30.140Z,62.6
2017-10-01T00:40:31.557Z,62.6
2017-10-01T00:41:32.976Z,62.6
2017-10-01T00:42:34.393Z,62.5
2017-10-01T00:43:35.810Z,62.5
2017-10-01T00:44:37.227Z,62.7
2017-10-01T00:45:38.642Z,62.7
2017-10-01T00:46:40.059Z,62.4
2017-10-01T00:47:41.474Z,62.7
2017-10-01T00:48:42.892Z,62.7
2017-10-01T00:49:44.310Z,62.6
2017-10-01T00:50:45.726Z,62.6
2017-10-01T00:51:47.142Z,62.7
2017-10-01T00:52:48.557Z,62.7
2017-10-01T00:53:49.974Z,62.4
2017-10-01T00:54:51.390Z,62.6
2017-10-01T00:55:52.807Z,62.7
2017-10-01T00:56:54.227Z,62.6
2017-10-01T00:57:55.645Z,62.6
2017-10-01T00:58:57.065Z,62.4
2017-10-01T00:59:58.485Z,62.7
2017-10-01T01:00:59.901Z,62.5
2017-10-01T01:02:01.318Z,62.7
2017-10-01T01:03:02.733Z,62.5
2017-10-01T01:04:04.163Z,62.6
2017-10-01T01:05:05.577Z,62.2
2017-10-01T01:06:06.991Z,62.5
2017-10-01T01:07:08.409Z,62.2
2017-10-01T01:08:09.826Z,62.4
2017-10-01T01:09:11.239Z,62.6
2017-10-01T01:10:12.657Z,62.6
2017-10-01T01:11:14.076Z,62.5
2017-10-01T01:12:15.491Z,62.4
2017-10-01T01:13:16.906Z,62.6
2017-10-01T01:14:18.320Z,62.4
2017-10-01T01:15:19.736Z,62.7
2017-10-01T01:16:21.152Z,62.7
2017-10-01T01:17:22.571Z,62.8
2017-10-01T01:18:23.987Z,62.8
2017-10-01T01:19:25.409Z,62.3
2017-10-01T01:20:26.822Z,62.4
2017-10-01T01:21:28.241Z,62.3
2017-10-01T01:22:29.661Z,62.3
2017-10-01T01:23:31.077Z,62.6
2017-10-01T01:24:32.493Z,62.5
2017-10-01T01:25:33.910Z,62.7
2017-10-01T01:26:35.327Z,62.6
2017-10-01T01:27:36.739Z,62.3
2017-10-01T01:28:38.158Z,62.6
2017-10-01T01:29:39.575Z,62.6
2017-10-01T01:30:40.986Z,62.4
2017-10-01T01:31:42.412Z,62.5
2017-10-01T01:32:43.832Z,62.6
2017-10-01T01:33:45.245Z,62.7
2017-10-01T01:34:46.661Z,63.1
2017-10-01T01:35:48.078Z,62.3
2017-10-01T01:36:49.495Z,63.2
2017-10-01T01:37:50.912Z,62.5
2017-10-01T01:38:52.327Z,62.6
2017-10-01T01:39:53.743Z,62.8
2017-10-01T01:40:55.162Z,62.5
2017-10-01T01:41:56.589Z,63.0
2017-10-01T01:42:58.007Z,62.5
2017-10-01T01:43:59.426Z,62.9
2017-10-01T01:45:00.843Z,63.1
2017-10-01T01:46:02.264Z,62.3
2017-10-01T01:47:03.677Z,62.6
2017-10-01T01:48:05.145Z,62.4
2017-10-01T01:49:06.559Z,62.9
2017-10-01T01:50:07.976Z,63.1
2017-10-01T01:51:09.391Z,62.9
2017-10-01T01:52:10.809Z,63.1
2017-10-01T01:53:12.223Z,62.9
2017-10-01T01:54:13.640Z,62.9
2017-10-01T01:55:15.055Z,62.8
2017-10-01T01:56:16.473Z,62.9
2017-10-01T01:57:17.886Z,62.9
2017-10-01T01:58:19.303Z,62.6
2017-10-01T01:59:20.720Z,62.5
2017-10-01T02:00:22.137Z,62.5
2017-10-01T02:01:23.554Z,62.3
2017-10-01T02:02:24.966Z,62.8
2017-10-01T02:03:26.387Z,62.9
2017-10-01T02:04:27.800Z,63.1
2017-10-01T02:05:29.219Z,62.7
2017-10-01T02:06:30.636Z,63.1
2017-10-01T02:07:32.052Z,62.9
2017-10-01T02:08:33.478Z,62.8
2017-10-01T02:09:34.898Z,62.9
2017-10-01T02:10:36.323Z,62.6
2017-10-01T02:11:37.731Z,62.9
2017-10-01T02:12:39.150Z,62.9
2017-10-01T02:13:40.567Z,62.4
2017-10-01T02:14:41.983Z,63.1
2017-10-01T02:15:43.402Z,62.6
2017-10-01T02:16:44.813Z,62.8
2017-10-01T02:17:46.232Z,62.6
2017-10-01T02:18:47.646Z,62.6
2017-10-01T02:19:49.063Z,63.0
2017-10-01T02:20:50.477Z,62.4
2017-10-01T02:21:51.898Z,62.5
2017-10-01T02:22:53.307Z,62.8
2017-10-01T02:23:54.721Z,62.6
2017-10-01T02:24:56.139Z,62.4
2017-10-01T02:25:57.554Z,62.9
2017-10-01T02:26:58.976Z,62.8
2017-10-01T02:28:00.390Z,63.0
2017-10-01T02:29:01.799Z,62.4
2017-10-01T02:30:03.225Z,62.9
2017-10-01T02:31:04.645Z,63.1
2017-10-01T02:32:06.065Z,62.9
2017-10-01T02:33:07.479Z,62.9
2017-10-01T02:34:08.899Z,63.0
2017-10-01T02:35:10.316Z,63.0
2017-10-01T02:36:11.731Z,62.9
2017-10-01T02:37:13.148Z,62.9
2017-10-01T02:38:14.565Z,63.1
2017-10-01T02:39:15.986Z,62.9
2017-10-01T02:40:17.397Z,63.1
2017-10-01T02:41:18.814Z,62.8
2017-10-01T02:42:20.230Z,63.0
2017-10-01T02:43:21.650Z,62.6
2017-10-01T02:44:23.066Z,63.4
2017-10-01T02:45:24.481Z,62.9
2017-10-01T02:46:25.896Z,63.4
2017-10-01T02:47:27.314Z,62.8
2017-10-01T02:48:28.730Z,62.7
2017-10-01T02:49:30.149Z,63.5
2017-10-01T02:50:31.564Z,63.6
2017-10-01T02:51:32.981Z,62.7
2017-10-01T02:52:34.395Z,62.7
2017-10-01T02:53:35.810Z,63.5
2017-10-01T02:54:37.224Z,63.1
2017-10-01T02:55:38.643Z,63.5
2017-10-01T02:56:40.059Z,62.6
2017-10-01T02:57:41.481Z,62.5
2017-10-01T02:58:42.899Z,62.6
2017-10-01T02:59:44.314Z,62.6
2017-10-01T03:00:45.733Z,62.9
2017-10-01T03:01:47.150Z,63.6
2017-10-01T03:02:48.569Z,63.5
2017-10-01T03:03:49.983Z,62.9
2017-10-01T03:04:51.400Z,62.7
2017-10-01T03:05:52.816Z,63.4
2017-10-01T03:06:54.234Z,62.9
2017-10-01T03:07:55.649Z,62.5
2017-10-01T03:08:57.069Z,62.5
2017-10-01T03:09:58.482Z,63.5
2017-10-01T03:10:59.900Z,63.6
2017-10-01T03:12:01.315Z,63.5
2017-10-01T03:13:02.736Z,63.6
2017-10-01T03:14:04.148Z,63.6
2017-10-01T03:15:05.563Z,63.3
2017-10-01T03:16:06.979Z,62.6
2017-10-01T03:17:08.417Z,62.5
2017-10-01T03:18:09.813Z,63.6
2017-10-01T03:19:11.228Z,63.4
2017-10-01T03:20:12.645Z,62.6
2017-10-01T03:21:14.060Z,63.6
2017-10-01T03:22:15.477Z,62.7
2017-10-01T03:23:16.882Z,62.9
2017-10-01T03:24:18.309Z,63.5
2017-10-01T03:25:19.726Z,63.6
2017-10-01T03:26:21.144Z,62.5
2017-10-01T03:27:22.562Z,63.7
2017-10-01T03:28:23.978Z,62.4
2017-10-01T03:29:25.398Z,62.8
2017-10-01T03:30:26.814Z,62.8
2017-10-01T03:31:28.230Z,63.6
2017-10-01T03:32:29.648Z,63.0
2017-10-01T03:33:31.066Z,63.2
2017-10-01T03:34:32.484Z,63.3
2017-10-01T03:35:33.898Z,63.4
2017-10-01T03:36:35.314Z,63.2
2017-10-01T03:37:36.730Z,63.7
2017-10-01T03:38:38.147Z,63.4
2017-10-01T03:39:39.580Z,63.4
2017-10-01T03:40:40.981Z,63.4
2017-10-01T03:41:42.395Z,63.1
2017-10-01T03:42:43.812Z,63.5
2017-10-01T03:43:45.229Z,62.6
2017-10-01T03:44:46.644Z,62.7
2017-10-01T03:45:48.061Z,62.9
2017-10-01T03:46:49.477Z,62.9
2017-10-01T03:47:50.892Z,63.6
2017-10-01T03:48:52.306Z,63.3
2017-10-01T03:49:53.722Z,63.3
2017-10-01T03:50:55.138Z,62.9
2017-10-01T03:51:56.555Z,63.6
2017-10-01T03:52:57.971Z,63.7
2017-10-01T03:53:59.388Z,63.3
2017-10-01T03:55:00.804Z,63.3
2017-10-01T03:56:02.221Z,63.2
2017-10-01T03:57:03.636Z,63.4
2017-10-01T03:58:05.094Z,63.5
2017-10-01T03:59:06.511Z,63.4
2017-10-01T04:00:07.934Z,63.4
2017-10-01T04:01:09.349Z,63.6
2017-10-01T04:02:10.769Z,63.4
2017-10-01T04:03:12.183Z,63.2
2017-10-01T04:04:13.600Z,63.2
2017-10-01T04:05:15.016Z,63.2
2017-10-01T04:06:16.433Z,63.6
2017-10-01T04:07:17.848Z,63.4
2017-10-01T04:08:19.262Z,63.0
2017-10-01T04:09:20.681Z,63.7
2017-10-01T04:10:22.097Z,63.0
2017-10-01T04:11:23.512Z,63.1
2017-10-01T04:12:24.926Z,63.2
2017-10-01T04:13:26.346Z,63.4
2017-10-01T04:14:27.762Z,63.1
2017-10-01T04:15:29.189Z,63.2
2017-10-01T04:16:30.602Z,63.4
2017-10-01T04:17:32.020Z,63.6
2017-10-01T04:18:33.436Z,63.2
2017-10-01T04:19:34.854Z,63.4
2017-10-01T04:20:36.270Z,63.2
2017-10-01T04:21:37.690Z,63.5
2017-10-01T04:22:39.106Z,63.5
2017-10-01T04:23:40.522Z,63.5
2017-10-01T04:24:41.940Z,63.3
2017-10-01T04:25:43.360Z,63.4
2017-10-01T04:26:44.776Z,63.5
2017-10-01T04:27:46.191Z,63.6
2017-10-01T04:28:47.618Z,63.4
2017-10-01T04:29:49.020Z,63.5
2017-10-01T04:30:50.441Z,63.0
2017-10-01T04:31:51.857Z,63.4
2017-10-01T04:32:53.271Z,63.3
2017-10-01T04:33:54.688Z,62.9
2017-10-01T04:34:56.106Z,63.4
2017-10-01T04:35:57.522Z,63.5
2017-10-01T04:36:58.941Z,63.4
2017-10-01T04:38:00.351Z,63.5
2017-10-01T04:39:01.768Z,63.5
2017-10-01T04:40:03.187Z,62.9
2017-10-01T04:41:04.602Z,63.2
2017-10-01T04:42:06.019Z,63.5
2017-10-01T04:43:07.435Z,63.4
2017-10-01T04:44:08.849Z,63.2
2017-10-01T04:45:10.268Z,63.6
2017-10-01T04:46:11.681Z,63.1
2017-10-01T04:47:13.098Z,63.3
2017-10-01T04:48:14.505Z,63.4
2017-10-01T04:49:15.929Z,63.8
2017-10-01T04:50:17.343Z,63.5
2017-10-01T04:51:18.761Z,63.6
2017-10-01T04:52:20.176Z,63.8
2017-10-01T04:53:21.592Z,63.2
2017-10-01T04:54:23.010Z,63.2
2017-10-01T04:55:24.425Z,64.1
2017-10-01T04:56:25.843Z,63.1
2017-10-01T04:57:27.262Z,63.3
2017-10-01T04:58:28.682Z,63.2
2017-10-01T04:59:30.098Z,63.4
2017-10-01T05:00:31.514Z,63.3
2017-10-01T05:01:32.931Z,62.9
2017-10-01T05:02:34.345Z,63.6
2017-10-01T05:03:35.798Z,63.3
2017-10-01T05:04:37.211Z,63.2
2017-10-01T05:05:38.633Z,63.2
2017-10-01T05:06:40.048Z,63.2
2017-10-01T05:07:41.463Z,63.2
2017-10-01T05:08:42.879Z,63.1
2017-10-01T05:09:44.296Z,63.8
2017-10-01T05:10:45.712Z,63.3
2017-10-01T05:11:47.126Z,63.3
2017-10-01T05:12:48.544Z,63.2
2017-10-01T05:13:49.961Z,63.0
2017-10-01T05:14:51.379Z,63.4
2017-10-01T05:15:52.802Z,63.0
2017-10-01T05:16:54.218Z,64.1
2017-10-01T05:17:55.634Z,63.0
2017-10-01T05:18:57.052Z,63.3
2017-10-01T05:19:58.465Z,63.0
2017-10-01T05:20:59.882Z,63.8
2017-10-01T05:22:01.302Z,63.2
2017-10-01T05:23:02.717Z,63.2
2017-10-01T05:24:04.135Z,63.3
2017-10-01T05:25:05.555Z,63.8
2017-10-01T05:26:06.969Z,63.3
2017-10-01T05:27:08.386Z,62.9
2017-10-01T05:28:09.803Z,63.0
2017-10-01T05:29:11.219Z,63.8
2017-10-01T05:30:12.635Z,62.9
2017-10-01T05:31:14.056Z,63.1
2017-10-01T05:32:15.471Z,63.3
2017-10-01T05:33:16.888Z,63.2
2017-10-01T05:34:18.303Z,63.6
2017-10-01T05:35:19.725Z,63.4
2017-10-01T05:36:21.143Z,63.7
2017-10-01T05:37:22.559Z,63.8
2017-10-01T05:38:23.975Z,63.1
2017-10-01T05:39:25.390Z,63.1
2017-10-01T05:40:26.808Z,62.9
2017-10-01T05:41:28.224Z,63.3
2017-10-01T05:42:29.640Z,63.2
2017-10-01T05:43:31.057Z,63.5
2017-10-01T05:44:32.475Z,63.6
2017-10-01T05:45:33.893Z,63.4
2017-10-01T05:46:35.309Z,63.4
2017-10-01T05:47:36.729Z,63.6
2017-10-01T05:48:38.145Z,63.9
2017-10-01T05:49:39.560Z,63.4
2017-10-01T05:50:40.975Z,63.9
2017-10-01T05:51:42.390Z,63.0
2017-10-01T05:52:43.807Z,63.3
2017-10-01T05:53:45.224Z,62.8
2017-10-01T05:54:46.641Z,63.1
2017-10-01T05:55:48.059Z,63.1
2017-10-01T05:56:49.474Z,63.2
2017-10-01T05:57:50.892Z,63.4
2017-10-01T05:58:52.313Z,63.3
2017-10-01T05:59:53.723Z,63.3
2017-10-01T06:00:55.141Z,63.2
2017-10-01T06:01:56.557Z,63.2
2017-10-01T06:02:57.978Z,63.9
2017-10-01T06:03:59.394Z,63.2
2017-10-01T06:05:00.812Z,63.0
2017-10-01T06:06:02.229Z,63.1
2017-10-01T06:07:03.652Z,63.0
2017-10-01T06:08:05.145Z,63.2
2017-10-01T06:09:06.561Z,63.2
2017-10-01T06:10:07.998Z,63.2
2017-10-01T06:11:09.416Z,63.2
2017-10-01T06:12:10.832Z,63.6
2017-10-01T06:13:12.251Z,63.4
2017-10-01T06:14:13.665Z,63.3
2017-10-01T06:15:15.083Z,63.4
2017-10-01T06:16:16.499Z,63.2
2017-10-01T06:17:17.916Z,63.5
2017-10-01T06:18:19.331Z,63.0
2017-10-01T06:19:20.748Z,63.4
2017-10-01T06:20:22.169Z,63.0
2017-10-01T06:21:23.588Z,63.5
2017-10-01T06:22:25.004Z,62.9
2017-10-01T06:23:26.428Z,63.4
2017-10-01T06:24:27.842Z,63.4
2017-10-01T06:25:29.259Z,63.1
2017-10-01T06:26:30.680Z,63.4
2017-10-01T06:27:32.101Z,62.9
2017-10-01T06:28:33.507Z,63.1
2017-10-01T06:29:34.936Z,63.6
2017-10-01T06:30:36.350Z,63.4
2017-10-01T06:31:37.769Z,62.9
2017-10-01T06:32:39.186Z,62.8
2017-10-01T06:33:40.604Z,63.5
2017-10-01T06:34:42.024Z,63.0
2017-10-01T06:35:43.455Z,63.5
2017-10-01T06:36:44.863Z,63.4
2017-10-01T06:37:46.279Z,63.5
2017-10-01T06:38:47.694Z,63.4
2017-10-01T06:39:49.115Z,63.2
2017-10-01T06:40:50.536Z,63.6
2017-10-01T06:41:51.950Z,63.6
2017-10-01T06:42:53.368Z,63.6
2017-10-01T06:43:54.785Z,63.4
2017-10-01T06:44:56.198Z,63.4
2017-10-01T06:45:57.621Z,63.2
2017-10-01T06:46:59.062Z,63.4
2017-10-01T06:48:00.479Z,63.3
2017-10-01T06:49:01.896Z,63.3
2017-10-01T06:50:03.316Z,63.6
2017-10-01T06:51:04.731Z,63.0
2017-10-01T06:52:06.147Z,62.9
2017-10-01T06:53:07.566Z,63.0
2017-10-01T06:54:08.984Z,62.5
2017-10-01T06:55:10.401Z,63.6
2017-10-01T06:56:11.820Z,62.9
2017-10-01T06:57:13.237Z,63.3
2017-10-01T06:58:14.660Z,63.3
2017-10-01T06:59:16.076Z,62.5
2017-10-01T07:00:17.493Z,63.0
2017-10-01T07:01:18.912Z,63.6
2017-10-01T07:02:20.328Z,63.0
2017-10-01T07:03:21.747Z,62.9
2017-10-01T07:04:23.164Z,63.7
2017-10-01T07:05:24.581Z,62.4
2017-10-01T07:06:25.996Z,62.7
2017-10-01T07:07:27.413Z,63.6
2017-10-01T07:08:28.832Z,62.5
2017-10-01T07:09:30.247Z,63.4
2017-10-01T07:10:31.665Z,62.5
2017-10-01T07:11:33.083Z,62.9
2017-10-01T07:12:34.501Z,62.9
2017-10-01T07:13:35.920Z,62.5
2017-10-01T07:14:37.340Z,62.6
2017-10-01T07:15:38.759Z,63.1
2017-10-01T07:16:40.176Z,63.0
2017-10-01T07:17:41.592Z,63.0
2017-10-01T07:18:43.009Z,63.0
2017-10-01T07:19:44.425Z,63.0
2017-10-01T07:20:45.843Z,62.9
2017-10-01T07:21:47.263Z,62.9
2017-10-01T07:22:48.679Z,62.9
2017-10-01T07:23:50.096Z,63.1
2017-10-01T07:24:51.515Z,62.9
2017-10-01T07:25:52.932Z,62.8
2017-10-01T07:26:54.349Z,62.8
2017-10-01T07:27:55.764Z,62.3
2017-10-01T07:28:57.184Z,62.3
2017-10-01T07:29:58.605Z,62.9
2017-10-01T07:31:00.024Z,62.9
2017-10-01T07:32:01.442Z,62.5
2017-10-01T07:33:02.860Z,62.9
2017-10-01T07:34:04.276Z,62.5
2017-10-01T07:35:05.726Z,62.7
2017-10-01T07:36:07.126Z,62.7
2017-10-01T07:37:08.541Z,62.6
2017-10-01T07:38:09.956Z,62.6
2017-10-01T07:39:11.374Z,62.6
2017-10-01T07:40:12.806Z,62.5
2017-10-01T07:41:14.225Z,62.7
2017-10-01T07:42:15.641Z,62.6
2017-10-01T07:43:17.057Z,62.6
2017-10-01T07:44:18.474Z,62.6
2017-10-01T07:45:19.893Z,62.7
2017-10-01T07:46:21.351Z,62.6
2017-10-01T07:47:22.768Z,62.8
2017-10-01T07:48:24.183Z,62.6
2017-10-01T07:49:25.602Z,62.6
2017-10-01T07:50:27.018Z,62.5
2017-10-01T07:51:28.436Z,62.6
2017-10-01T07:52:29.852Z,62.7
2017-10-01T07:53:31.275Z,62.7
2017-10-01T07:54:32.692Z,62.6
2017-10-01T07:55:34.112Z,62.6
2017-10-01T07:56:35.542Z,62.5
2017-10-01T07:57:36.951Z,62.5
2017-10-01T07:58:38.368Z,62.5
2017-10-01T07:59:39.783Z,62.0
2017-10-01T08:00:41.203Z,62.3
2017-10-01T08:01:42.622Z,62.9
2017-10-01T08:02:44.038Z,62.2
2017-10-01T08:03:45.455Z,62.9
2017-10-01T08:04:46.871Z,63.0
2017-10-01T08:05:48.289Z,62.2
2017-10-01T08:06:49.707Z,62.7
2017-10-01T08:07:51.125Z,62.0
2017-10-01T08:08:52.544Z,62.7
2017-10-01T08:09:53.962Z,62.2
2017-10-01T08:10:55.380Z,62.3
2017-10-01T08:11:56.800Z,62.3
2017-10-01T08:12:58.218Z,62.5
2017-10-01T08:13:59.635Z,62.3
2017-10-01T08:15:01.051Z,62.4
2017-10-01T08:16:02.469Z,62.4
2017-10-01T08:17:03.888Z,61.8
2017-10-01T08:18:05.307Z,62.3
2017-10-01T08:19:06.724Z,62.6
2017-10-01T08:20:08.142Z,62.3
2017-10-01T08:21:09.558Z,62.5
2017-10-01T08:22:10.975Z,61.9
2017-10-01T08:23:12.392Z,62.2
2017-10-01T08:24:13.810Z,62.0
2017-10-01T08:25:15.226Z,62.4
2017-10-01T08:26:16.643Z,62.0
2017-10-01T08:27:18.059Z,62.7
2017-10-01T08:28:19.488Z,62.2
2017-10-01T08:29:20.898Z,62.1
2017-10-01T08:30:22.318Z,62.1
2017-10-01T08:31:23.734Z,62.1
2017-10-01T08:32:25.152Z,61.9
2017-10-01T08:33:26.572Z,62.0
2017-10-01T08:34:27.986Z,62.2
2017-10-01T08:35:29.404Z,62.4
2017-10-01T08:36:30.824Z,62.0
2017-10-01T08:37:32.242Z,61.7
2017-10-01T08:38:33.659Z,62.3
2017-10-01T08:39:35.077Z,62.4
2017-10-01T08:40:36.491Z,61.7
2017-10-01T08:41:37.912Z,62.4
2017-10-01T08:42:39.328Z,61.6
2017-10-01T08:43:40.745Z,61.9
2017-10-01T08:44:42.162Z,62.2
2017-10-01T08:45:43.581Z,61.8
2017-10-01T08:46:45.000Z,62.3
2017-10-01T08:47:46.419Z,61.7
2017-10-01T08:48:47.837Z,61.7
2017-10-01T08:49:49.260Z,62.6
2017-10-01T08:50:50.674Z,61.9
2017-10-01T08:51:52.092Z,61.8
2017-10-01T08:52:53.511Z,61.9
2017-10-01T08:53:54.929Z,61.9
2017-10-01T08:54:56.346Z,61.4
2017-10-01T08:55:57.764Z,62.0
2017-10-01T08:56:59.180Z,61.5
2017-10-01T08:58:00.598Z,61.9
2017-10-01T08:59:02.015Z,61.9
2017-10-01T09:00:03.433Z,62.0
2017-10-01T09:01:04.849Z,61.9
2017-10-01T09:02:06.280Z,61.8
2017-10-01T09:03:07.687Z,61.8
2017-10-01T09:04:09.103Z,62.2
2017-10-01T09:05:10.525Z,62.2
2017-10-01T09:06:11.941Z,62.1
2017-10-01T09:07:13.360Z,62.0
2017-10-01T09:08:14.776Z,62.2
2017-10-01T09:09:16.194Z,62.2
2017-10-01T09:10:17.613Z,61.6
2017-10-01T09:11:19.033Z,61.4
2017-10-01T09:12:20.447Z,61.5
2017-10-01T09:13:21.865Z,62.2
2017-10-01T09:14:23.282Z,61.5
2017-10-01T09:15:24.700Z,61.4
2017-10-01T09:16:26.116Z,61.6
2017-10-01T09:17:27.534Z,61.5
2017-10-01T09:18:28.951Z,61.5
2017-10-01T09:19:30.369Z,61.4
2017-10-01T09:20:31.789Z,61.5
2017-10-01T09:21:33.209Z,61.4
2017-10-01T09:22:34.629Z,61.8
2017-10-01T09:23:36.046Z,61.6
2017-10-01T09:24:37.463Z,61.6
2017-10-01T09:25:38.882Z,61.4
2017-10-01T09:26:40.295Z,61.7
2017-10-01T09:27:41.715Z,61.6
2017-10-01T09:28:43.132Z,61.6
2017-10-01T09:29:44.550Z,61.2
2017-10-01T09:30:45.966Z,61.2
2017-10-01T09:31:47.387Z,61.3
2017-10-01T09:32:48.818Z,61.3
2017-10-01T09:33:50.236Z,61.2
2017-10-01T09:34:51.655Z,61.1
2017-10-01T09:35:53.073Z,60.8
2017-10-01T09:36:54.524Z,61.2
2017-10-01T09:37:55.942Z,61.4
2017-10-01T09:38:57.362Z,61.4
2017-10-01T09:39:58.781Z,61.3
2017-10-01T09:41:00.197Z,61.1
2017-10-01T09:42:01.615Z,60.9
2017-10-01T09:43:03.033Z,60.7
2017-10-01T09:44:04.452Z,61.0
2017-10-01T09:45:05.870Z,61.2
2017-10-01T09:46:07.287Z,60.9
2017-10-01T09:47:08.703Z,60.9
2017-10-01T09:48:10.146Z,60.8
2017-10-01T09:49:11.561Z,60.8
2017-10-01T09:50:12.980Z,61.4
2017-10-01T09:51:14.399Z,61.4
2017-10-01T09:52:15.813Z,61.0
2017-10-01T09:53:17.232Z,61.5
2017-10-01T09:54:18.651Z,61.0
2017-10-01T09:55:20.068Z,60.8
2017-10-01T09:56:21.488Z,61.4
2017-10-01T09:57:22.897Z,60.7
2017-10-01T09:58:24.324Z,60.8
2017-10-01T09:59:25.741Z,60.6
2017-10-01T10:00:27.159Z,60.6
2017-10-01T10:01:28.580Z,60.7
2017-10-01T10:02:30.001Z,60.7
2017-10-01T10:03:31.420Z,60.7
2017-10-01T10:04:32.839Z,60.6
2017-10-01T10:05:34.259Z,60.7
2017-10-01T10:06:35.676Z,60.6
2017-10-01T10:07:37.093Z,61.0
2017-10-01T10:08:38.514Z,60.2
2017-10-01T10:09:39.930Z,61.0
2017-10-01T10:10:41.348Z,60.2
2017-10-01T10:11:42.770Z,60.9
2017-10-01T10:12:44.192Z,60.6
2017-10-01T10:13:45.625Z,61.2
2017-10-01T10:14:47.045Z,60.5
2017-10-01T10:15:48.464Z,60.3
2017-10-01T10:16:49.883Z,60.4
2017-10-01T10:17:51.300Z,60.4
2017-10-01T10:18:52.719Z,60.3
2017-10-01T10:19:54.138Z,60.4
2017-10-01T10:20:55.554Z,60.4
2017-10-01T10:21:56.985Z,60.3
2017-10-01T10:22:58.404Z,60.4
2017-10-01T10:23:59.826Z,60.3
2017-10-01T10:25:01.249Z,60.3
2017-10-01T10:26:02.669Z,60.2
2017-10-01T10:27:04.109Z,60.1
2017-10-01T10:28:05.574Z,60.2
2017-10-01T10:29:06.988Z,60.1
2017-10-01T10:30:08.421Z,59.8
2017-10-01T10:31:09.841Z,60.2
2017-10-01T10:32:11.260Z,60.0
2017-10-01T10:33:12.680Z,60.1
2017-10-01T10:34:14.098Z,60.1
2017-10-01T10:35:15.519Z,60.1
2017-10-01T10:36:16.969Z,60.2
2017-10-01T10:37:18.360Z,60.2
2017-10-01T10:38:19.779Z,60.1
2017-10-01T10:39:21.196Z,60.1
2017-10-01T10:40:22.618Z,60.2
2017-10-01T10:41:24.031Z,60.1
2017-10-01T10:42:25.451Z,60.2
2017-10-01T10:43:26.869Z,60.1
2017-10-01T10:44:28.288Z,60.2
2017-10-01T10:45:29.716Z,60.2
2017-10-01T10:46:31.128Z,60.2
2017-10-01T10:47:32.549Z,60.4
2017-10-01T10:48:33.970Z,59.6
2017-10-01T10:49:35.387Z,59.4
2017-10-01T10:50:36.809Z,59.8
2017-10-01T10:51:38.227Z,59.8
2017-10-01T10:52:39.647Z,59.7
2017-10-01T10:53:41.069Z,59.7
2017-10-01T10:54:42.488Z,59.3
2017-10-01T10:55:43.910Z,59.6
2017-10-01T10:56:45.326Z,59.6
2017-10-01T10:57:46.747Z,59.8
2017-10-01T10:58:48.188Z,60.0
2017-10-01T10:59:49.594Z,60.0
2017-10-01T11:00:51.031Z,59.3
2017-10-01T11:01:52.450Z,59.6
2017-10-01T11:02:53.870Z,59.1
2017-10-01T11:03:55.289Z,59.5
2017-10-01T11:04:56.712Z,59.6
2017-10-01T11:05:58.129Z,59.0
2017-10-01T11:06:59.551Z,59.5
2017-10-01T11:08:00.972Z,59.8
2017-10-01T11:09:02.393Z,58.9
2017-10-01T11:10:03.812Z,59.5
2017-10-01T11:11:05.235Z,59.5
2017-10-01T11:12:06.655Z,59.5
2017-10-01T11:13:08.077Z,58.6
2017-10-01T11:14:09.497Z,59.1
2017-10-01T11:15:10.916Z,59.2
2017-10-01T11:16:12.335Z,58.9
2017-10-01T11:17:13.758Z,58.9
2017-10-01T11:18:15.182Z,59.0
2017-10-01T11:19:16.603Z,58.5
2017-10-01T11:20:18.019Z,58.9
2017-10-01T11:21:19.437Z,58.9
2017-10-01T11:22:20.871Z,58.7
2017-10-01T11:23:22.292Z,58.4
2017-10-01T11:24:23.716Z,59.0
2017-10-01T11:25:25.141Z,59.0
2017-10-01T11:26:26.560Z,58.6
2017-10-01T11:27:27.983Z,58.8
2017-10-01T11:28:29.411Z,58.2
2017-10-01T11:29:30.831Z,58.9
2017-10-01T11:30:32.248Z,59.1
2017-10-01T11:31:33.671Z,59.1
2017-10-01T11:32:35.092Z,58.8
2017-10-01T11:33:36.515Z,58.7
2017-10-01T11:34:37.936Z,58.7
2017-10-01T11:35:39.356Z,58.6
2017-10-01T11:36:40.777Z,58.5
2017-10-01T11:37:42.194Z,58.6
2017-10-01T11:38:43.618Z,58.6
2017-10-01T11:39:45.046Z,58.8
2017-10-01T11:40:46.470Z,58.9
2017-10-01T11:41:47.897Z,58.6
2017-10-01T11:42:49.325Z,58.0
2017-10-01T11:43:50.745Z,58.4
2017-10-01T11:44:52.165Z,58.1
2017-10-01T11:45:53.587Z,58.2
2017-10-01T11:46:55.008Z,58.4
2017-10-01T11:47:56.426Z,58.6
2017-10-01T11:48:57.848Z,58.8
2017-10-01T11:49:59.270Z,58.6
2017-10-01T11:51:00.692Z,58.5
2017-10-01T11:52:02.113Z,58.2
2017-10-01T11:53:03.536Z,58.3
2017-10-01T11:54:04.955Z,58.0
2017-10-01T11:55:06.394Z,58.2
2017-10-01T11:56:07.812Z,57.6
2017-10-01T11:57:09.242Z,57.8
2017-10-01T11:58:10.667Z,57.6
2017-10-01T11:59:12.087Z,57.5
2017-10-01T12:00:13.508Z,57.3
2017-10-01T12:01:14.926Z,57.5
2017-10-01T12:02:16.347Z,57.4
2017-10-01T12:03:17.769Z,57.5
2017-10-01T12:04:19.192Z,57.2
2017-10-01T12:05:20.614Z,57.2
2017-10-01T12:06:22.044Z,57.3
2017-10-01T12:07:23.466Z,57.4
2017-10-01T12:08:24.889Z,57.4
2017-10-01T12:09:26.310Z,57.7
2017-10-01T12:10:27.739Z,57.1
2017-10-01T12:11:29.160Z,57.2
2017-10-01T12:12:30.583Z,57.2
2017-10-01T12:13:32.007Z,57.0
2017-10-01T12:14:33.429Z,57.0
2017-10-01T12:15:34.851Z,57.3
2017-10-01T12:16:36.269Z,57.2
2017-10-01T12:17:37.694Z,57.1
2017-10-01T12:18:39.128Z,57.4
2017-10-01T12:19:40.550Z,56.9
2017-10-01T12:20:41.973Z,56.8
2017-10-01T12:21:43.396Z,56.7
2017-10-01T12:22:44.816Z,56.8
2017-10-01T12:23:46.238Z,56.8
2017-10-01T12:24:47.663Z,56.6
2017-10-01T12:25:49.081Z,56.6
2017-10-01T12:26:50.502Z,57.1
2017-10-01T12:27:51.923Z,57.2
2017-10-01T12:28:53.345Z,57.2
2017-10-01T12:29:54.766Z,57.2
2017-10-01T12:30:56.184Z,56.5
2017-10-01T12:31:57.613Z,56.3
2017-10-01T12:32:59.036Z,56.4
2017-10-01T12:34:00.457Z,56.4
2017-10-01T12:35:01.879Z,56.2
2017-10-01T12:36:03.302Z,56.3
2017-10-01T12:37:04.725Z,56.1
2017-10-01T12:38:06.145Z,56.2
2017-10-01T12:39:07.570Z,56.1
2017-10-01T12:40:08.992Z,56.3
2017-10-01T12:41:10.413Z,55.8
2017-10-01T12:42:11.837Z,55.9
2017-10-01T12:43:13.260Z,55.9
2017-10-01T12:44:14.682Z,55.8
2017-10-01T12:45:16.114Z,55.8
2017-10-01T12:46:17.523Z,55.9
2017-10-01T12:47:18.948Z,55.8
2017-10-01T12:48:20.368Z,55.7
2017-10-01T12:49:21.790Z,55.5
2017-10-01T12:50:23.213Z,55.7
2017-10-01T12:51:24.631Z,55.7
2017-10-01T12:52:26.071Z,55.6
2017-10-01T12:53:27.477Z,55.7
2017-10-01T12:54:28.897Z,55.8
2017-10-01T12:55:30.326Z,55.4
2017-10-01T12:56:31.753Z,55.1
2017-10-01T12:57:33.184Z,55.0
2017-10-01T12:58:34.637Z,55.1
2017-10-01T12:59:36.060Z,55.3
2017-10-01T13:00:37.481Z,55.3
2017-10-01T13:01:38.904Z,55.2
2017-10-01T13:02:40.326Z,55.4
2017-10-01T13:03:41.750Z,55.3
2017-10-01T13:04:43.167Z,55.2
2017-10-01T13:05:44.593Z,55.3
2017-10-01T13:06:46.028Z,55.1
2017-10-01T13:07:47.451Z,55.5
2017-10-01T13:08:48.872Z,54.9
2017-10-01T13:09:50.292Z,55.0
2017-10-01T13:10:51.720Z,55.0
2017-10-01T13:11:53.140Z,54.9
2017-10-01T13:12:54.563Z,54.9
2017-10-01T13:13:55.991Z,54.8
2017-10-01T13:14:57.411Z,54.8
2017-10-01T13:15:58.832Z,55.1
2017-10-01T13:17:00.259Z,54.8
2017-10-01T13:18:01.681Z,55.0
2017-10-01T13:19:03.101Z,55.1
2017-10-01T13:20:04.523Z,54.7
2017-10-01T13:21:05.946Z,54.5
2017-10-01T13:22:07.368Z,54.6
2017-10-01T13:23:08.792Z,54.9
2017-10-01T13:24:10.216Z,54.5
2017-10-01T13:25:11.638Z,54.5
2017-10-01T13:26:13.062Z,54.6
2017-10-01T13:27:14.483Z,54.5
2017-10-01T13:28:15.909Z,54.5
2017-10-01T13:29:17.341Z,54.8
2017-10-01T13:30:18.763Z,54.7
2017-10-01T13:31:20.183Z,55.0
2017-10-01T13:32:21.608Z,54.7
2017-10-01T13:33:23.033Z,54.9
2017-10-01T13:34:24.454Z,54.7
2017-10-01T13:35:25.876Z,54.8
2017-10-01T13:36:27.300Z,54.7
2017-10-01T13:37:28.722Z,55.0